This is the latest recevied weather packets stored in our database for station/object WB4YDL. If no packets are shown the sender has not sent any weather packets the latest 10 day(s).
| Time | Temp. | Humidity | Pressure | Rain* | Wind** | Luminosity | Snow |
|---|---|---|---|---|---|---|---|
| 1777844355 | 21.67° C | 37% | 1010.7 hPa | 0 mm | - | 419 W/m² | - |
| 1777844052 | 22.22° C | 39% | 1010.4 hPa | 0 mm | - | 437 W/m² | - |
| 1777843749 | 22.22° C | 37% | 1010.7 hPa | 0 mm | - | 452 W/m² | - |
| 1777843446 | 22.22° C | 37% | 1010.5 hPa | 0 mm | - | 465 W/m² | - |
| 1777843144 | 21.67° C | 38% | 1010.6 hPa | 0 mm | - | 481 W/m² | - |
| 1777842840 | 21.67° C | 40% | 1010.7 hPa | 0 mm | - | 495 W/m² | - |
| 1777842535 | 21.67° C | 39% | 1010.9 hPa | 0 mm | - | 511 W/m² | - |
| 1777842233 | 21.67° C | 38% | 1011.1 hPa | 0 mm | - | 524 W/m² | - |
| 1777841927 | 21.67° C | 39% | 1011 hPa | 0 mm | - | 539 W/m² | - |
| 1777841625 | 21.67° C | 38% | 1011.3 hPa | 0 mm | - | 552 W/m² | - |
| 1777841321 | 21.67° C | 39% | 1011.4 hPa | 0 mm | - | 565 W/m² | - |
| 1777841018 | 22.22° C | 40% | 1011.3 hPa | 0 mm | - | 578 W/m² | - |
| 1777840715 | 21.67° C | 37% | 1011.7 hPa | 0 mm | - | 588 W/m² | - |
| 1777840413 | 21.67° C | 40% | 1011.7 hPa | 0 mm | - | 601 W/m² | - |
| 1777840110 | 21.67° C | 40% | 1011.8 hPa | 0 mm | - | 613 W/m² | - |
| 1777839808 | 21.11° C | 41% | 1012 hPa | 0 mm | - | 624 W/m² | - |
| 1777839506 | 21.11° C | 40% | 1012.1 hPa | 0 mm | - | 637 W/m² | - |
| 1777839202 | 21.67° C | 39% | 1012.1 hPa | 0 mm | - | 645 W/m² | - |
| 1777838900 | 21.11° C | 41% | 1012.3 hPa | 0 mm | - | 655 W/m² | - |
| 1777838596 | 21.11° C | 40% | 1012.5 hPa | 0 mm | - | 666 W/m² | - |
| 1777838293 | 21.11° C | 41% | 1012.5 hPa | 0 mm | - | 677 W/m² | - |
| 1777837990 | 21.11° C | 40% | 1012.5 hPa | 0 mm | - | 688 W/m² | - |
| 1777837687 | 20.56° C | 41% | 1012.8 hPa | 0 mm | - | 700 W/m² | - |
| 1777837383 | 21.11° C | 42% | 1012.9 hPa | 0 mm | - | 709 W/m² | - |
| 1777837079 | 20.56° C | 41% | 1013.2 hPa | 0 mm | - | 721 W/m² | - |
* Rain latest hour (hover to see other rain measurements)
** Current wind speed in m/s (hover to see current wind gust speed)